Time;durP1;ratioP1;P1;durP2;ratioP2;P2;SDS_P1;SDS_P2;PMS_P1;PMS_P2;Temp;Humidity;BMP_temperature;BMP_pressure;BME280_temperature;BME280_humidity;BME280_pressure;Samples;Min_cycle;Max_cycle;Signal;HPM_P1;HPM_P2
2022/06/03 00:02:25;;;;;;;;;;;;;;;;;;5034933;28;19921;-63
2022/06/03 00:04:51;;;;;;;;;;;;;;;;;;5034415;28;19928;-63
2022/06/03 00:07:17;;;;;;;;;;;;;;;;;;5034884;28;19927;-63
2022/06/03 00:09:44;;;;;;;;;;;;;;;;;;5034716;28;20602;-63
2022/06/03 00:12:10;;;;;;;;;;;;;;;;;;5034260;28;19921;-63
2022/06/03 00:14:36;;;;;;;;;;;;;;;;;;5034799;28;20361;-63
2022/06/03 00:17:02;;;;;;;;;;;;;;;;;;5034718;28;19936;-63
2022/06/03 00:19:28;;;;;;;;;;;;;;;;;;5033972;28;19952;-63
2022/06/03 00:21:54;;;;;;;;;;;;;;;;;;5034609;28;19940;-63
2022/06/03 00:24:20;;;;;;;;;;;;;;;;;;5034003;28;19921;-63
2022/06/03 00:26:46;;;;;;;;;;;;;;;;;;5033846;28;19928;-63
2022/06/03 00:29:12;;;;;;;;;;;;;;;;;;5034490;28;19928;-63
2022/06/03 00:31:38;;;;;;;;;;;;;;;;;;5034462;28;19932;-63
2022/06/03 00:34:06;;;;;;;;;;;;;;;;;;5033830;28;19925;-63
2022/06/03 00:36:32;;;;;;;;;;;;;;;;;;5034387;28;20019;-63
2022/06/03 00:38:58;;;;;;;;;;;;;;;;;;5034160;28;19921;-63
2022/06/03 00:41:25;;;;;;;;;;;;;;;;;;5033183;28;19932;-63
2022/06/03 00:43:51;;;;;;;;;;;;;;;;;;5034215;28;19960;-63
2022/06/03 00:46:18;;;;;;;;;;;;;;;;;;5034199;28;19959;-63
2022/06/03 00:48:44;;;;;;;;;;;;;;;;;;5033099;28;20011;-63
2022/06/03 00:51:10;;;;;;;;;;;;;;;;;;5034163;28;19968;-63
2022/06/03 00:53:35;;;;;;;;;;;;;;;;;;5034074;28;19971;-63
2022/06/03 00:56:01;;;;;;;;;;;;;;;;;;5033549;28;19925;-63
2022/06/03 00:58:27;;;;;;;;;;;;;;;;;;5033954;28;19964;-63
2022/06/03 01:00:53;;;;;;;;;;;;;;;;;;5033762;28;19960;-63
2022/06/03 01:03:19;;;;;;;;;;;;;;;;;;5033005;28;19921;-63
2022/06/03 01:05:45;;;;;;;;;;;;;;;;;;5033984;28;19971;-63
2022/06/03 01:08:11;;;;;;;;;;;;;;;;;;5033423;28;20015;-63
2022/06/03 01:10:37;;;;;;;;;;;;;;;;;;5032991;28;19925;-63
2022/06/03 01:13:03;;;;;;;;;;;;;;;;;;5033748;28;19921;-63
2022/06/03 01:15:29;;;;;;;;;;;;;;;;;;5033593;28;20004;-63
2022/06/03 01:17:55;;;;;;;;;;;;;;;;;;5031339;28;20093;-62
2022/06/03 01:20:21;;;;;;;;;;;;;;;;;;5033421;28;19931;-62
2022/06/03 01:22:47;;;;;;;;;;;;;;;;;;5033600;28;19925;-62
2022/06/03 01:25:13;;;;;;;;;;;;;;;;;;5032837;28;19921;-62
2022/06/03 01:27:39;;;;;;;;;;;;;;;;;;5033262;28;19922;-62
2022/06/03 01:30:06;;;;;;;;;;;;;;;;;;5033161;28;19974;-62
2022/06/03 01:32:32;;;;;;;;;;;;;;;;;;5032601;28;19921;-62
2022/06/03 01:34:58;;;;;;;;;;;;;;;;;;5032543;28;19944;-62
2022/06/03 01:37:24;;;;;;;;;;;;;;;;;;5032878;28;19975;-63
2022/06/03 01:39:50;;;;;;;;;;;;;;;;;;5032416;28;19921;-63
2022/06/03 01:42:16;;;;;;;;;;;;;;;;;;5032812;28;19926;-63
2022/06/03 01:44:42;;;;;;;;;;;;;;;;;;5033078;28;19956;-63
2022/06/03 01:47:08;;;;;;;;;;;;;;;;;;5032333;28;19932;-63
2022/06/03 01:49:34;;;;;;;;;;;;;;;;;;5032912;28;19921;-63
2022/06/03 01:52:00;;;;;;;;;;;;;;;;;;5032971;28;20020;-63
2022/06/03 01:54:26;;;;;;;;;;;;;;;;;;5032233;28;19928;-63
2022/06/03 01:56:52;;;;;;;;;;;;;;;;;;5032801;28;19929;-63
2022/06/03 01:59:18;;;;;;;;;;;;;;;;;;5032453;28;19927;-63
2022/06/03 02:01:44;;;;;;;;;;;;;;;;;;5032008;28;19921;-63
2022/06/03 02:04:10;;;;;;;;;;;;;;;;;;5032633;28;19975;-63
2022/06/03 02:06:36;;;;;;;;;;;;;;;;;;5032641;28;19921;-63
2022/06/03 02:09:02;;;;;;;;;;;;;;;;;;5031671;28;19932;-63
2022/06/03 02:11:28;;;;;;;;;;;;;;;;;;5032435;28;19921;-63
2022/06/03 02:13:54;;;;;;;;;;;;;;;;;;5032566;28;19921;-63
2022/06/03 02:16:21;;;;;;;;;;;;;;;;;;5031756;28;19921;-63
2022/06/03 02:18:47;;;;;;;;;;;;;;;;;;5032530;28;19929;-63
2022/06/03 02:21:13;;;;;;;;;;;;;;;;;;5032348;28;20371;-63
2022/06/03 02:23:39;;;;;;;;;;;;;;;;;;5031740;28;19937;-63
2022/06/03 02:26:05;;;;;;;;;;;;;;;;;;5032305;28;19925;-63
2022/06/03 02:28:31;;;;;;;;;;;;;;;;;;5032175;28;20031;-63
2022/06/03 02:30:57;;;;;;;;;;;;;;;;;;5031737;28;19932;-63
2022/06/03 02:33:23;;;;;;;;;;;;;;;;;;5032262;28;19921;-63
2022/06/03 02:35:50;;;;;;;;;;;;;;;;;;5032336;28;19996;-63
2022/06/03 02:38:16;;;;;;;;;;;;;;;;;;5031392;28;19929;-63
2022/06/03 02:40:42;;;;;;;;;;;;;;;;;;5031825;28;19978;-63
2022/06/03 02:43:08;;;;;;;;;;;;;;;;;;5032088;28;20463;-63
2022/06/03 02:45:34;;;;;;;;;;;;;;;;;;5031468;28;19921;-63
2022/06/03 02:48:00;;;;;;;;;;;;;;;;;;5031518;28;19943;-63
2022/06/03 02:50:26;;;;;;;;;;;;;;;;;;5031952;28;19921;-63
2022/06/03 02:52:52;;;;;;;;;;;;;;;;;;5031406;28;19933;-63
2022/06/03 02:55:18;;;;;;;;;;;;;;;;;;5032021;28;20019;-63
2022/06/03 02:57:44;;;;;;;;;;;;;;;;;;5031900;28;19925;-63
2022/06/03 03:00:10;;;;;;;;;;;;;;;;;;5031771;28;19921;-63
2022/06/03 03:02:36;;;;;;;;;;;;;;;;;;5031678;28;19921;-63
2022/06/03 03:05:03;;;;;;;;;;;;;;;;;;5031915;28;19921;-63
2022/06/03 03:07:29;;;;;;;;;;;;;;;;;;5031935;28;19968;-63
2022/06/03 03:09:55;;;;;;;;;;;;;;;;;;5030465;28;19968;-63
2022/06/03 03:12:21;;;;;;;;;;;;;;;;;;5032064;28;19921;-63
2022/06/03 03:14:47;;;;;;;;;;;;;;;;;;5032014;28;19921;-63
2022/06/03 03:17:12;;;;;;;;;;;;;;;;;;5031213;28;20019;-63
2022/06/03 03:19:38;;;;;;;;;;;;;;;;;;5031691;28;19961;-63
2022/06/03 03:22:04;;;;;;;;;;;;;;;;;;5031863;28;19975;-63
2022/06/03 03:24:30;;;;;;;;;;;;;;;;;;5031290;28;19922;-63
2022/06/03 03:26:56;;;;;;;;;;;;;;;;;;5031758;28;19921;-63
2022/06/03 03:29:22;;;;;;;;;;;;;;;;;;5031584;28;19932;-63
2022/06/03 03:31:48;;;;;;;;;;;;;;;;;;5030803;28;19975;-63
2022/06/03 03:34:14;;;;;;;;;;;;;;;;;;5031624;28;19928;-63
2022/06/03 03:36:40;;;;;;;;;;;;;;;;;;5031649;28;19959;-63
2022/06/03 03:39:06;;;;;;;;;;;;;;;;;;5030957;28;19938;-63
2022/06/03 03:41:32;;;;;;;;;;;;;;;;;;5031364;28;20016;-63
2022/06/03 03:43:58;;;;;;;;;;;;;;;;;;5031494;28;19971;-63
2022/06/03 03:46:24;;;;;;;;;;;;;;;;;;5030911;28;19921;-63
2022/06/03 03:48:50;;;;;;;;;;;;;;;;;;5031493;28;20004;-63
2022/06/03 03:51:16;;;;;;;;;;;;;;;;;;5031341;28;19928;-63
2022/06/03 03:53:42;;;;;;;;;;;;;;;;;;5030857;28;19925;-63
2022/06/03 03:56:08;;;;;;;;;;;;;;;;;;5031522;28;20008;-63
2022/06/03 03:58:34;;;;;;;;;;;;;;;;;;5031806;28;19933;-63
2022/06/03 04:01:01;;;;;;;;;;;;;;;;;;5034385;28;19921;-63
2022/06/03 04:03:27;;;;;;;;;;;;;;;;;;5034880;28;19921;-63
2022/06/03 04:05:52;;;;;;;;;;;;;;;;;;5034888;28;19971;-63
2022/06/03 04:08:18;;;;;;;;;;;;;;;;;;5034200;28;19928;-63
2022/06/03 04:10:44;;;;;;;;;;;;;;;;;;5034660;28;20012;-63
2022/06/03 04:13:10;;;;;;;;;;;;;;;;;;5034873;28;19971;-63
2022/06/03 04:15:36;;;;;;;;;;;;;;;;;;5034117;28;19932;-63
2022/06/03 04:18:02;;;;;;;;;;;;;;;;;;5034741;28;20317;-63
2022/06/03 04:20:28;;;;;;;;;;;;;;;;;;5034331;28;19921;-63
2022/06/03 04:22:55;;;;;;;;;;;;;;;;;;5033880;28;19999;-63
2022/06/03 04:25:21;;;;;;;;;;;;;;;;;;5034525;28;20296;-63
2022/06/03 04:27:47;;;;;;;;;;;;;;;;;;5034562;28;20279;-63
2022/06/03 04:30:12;;;;;;;;;;;;;;;;;;5033631;28;19928;-63
2022/06/03 04:32:38;;;;;;;;;;;;;;;;;;5034297;28;19972;-63
2022/06/03 04:35:04;;;;;;;;;;;;;;;;;;5034252;28;19921;-63
2022/06/03 04:37:30;;;;;;;;;;;;;;;;;;5033692;28;20015;-63
2022/06/03 04:39:56;;;;;;;;;;;;;;;;;;5033852;28;20012;-63
2022/06/03 04:42:22;;;;;;;;;;;;;;;;;;5033762;28;19929;-63
2022/06/03 04:44:48;;;;;;;;;;;;;;;;;;5033574;28;19928;-63
2022/06/03 04:47:14;;;;;;;;;;;;;;;;;;5034111;28;20035;-63
2022/06/03 04:49:40;;;;;;;;;;;;;;;;;;5034234;28;19928;-63
2022/06/03 04:52:06;;;;;;;;;;;;;;;;;;5033159;28;19932;-63
2022/06/03 04:54:32;;;;;;;;;;;;;;;;;;5034097;28;19921;-63
2022/06/03 04:56:58;;;;;;;;;;;;;;;;;;5033900;28;19975;-63
2022/06/03 04:59:24;;;;;;;;;;;;;;;;;;5032996;28;19921;-63
2022/06/03 05:01:50;;;;;;;;;;;;;;;;;;5033943;28;20119;-63
2022/06/03 05:04:16;;;;;;;;;;;;;;;;;;5033898;28;19928;-63
2022/06/03 05:06:42;;;;;;;;;;;;;;;;;;5032915;28;19972;-63
2022/06/03 05:09:08;;;;;;;;;;;;;;;;;;5033354;28;19971;-63
2022/06/03 05:11:34;;;;;;;;;;;;;;;;;;5033268;28;19928;-63
2022/06/03 05:14:00;;;;;;;;;;;;;;;;;;5032366;28;19921;-63
2022/06/03 05:16:26;;;;;;;;;;;;;;;;;;5033291;28;19925;-63
2022/06/03 05:18:52;;;;;;;;;;;;;;;;;;5032944;28;19929;-63
2022/06/03 05:21:17;;;;;;;;;;;;;;;;;;5032994;28;20019;-63
2022/06/03 05:23:43;;;;;;;;;;;;;;;;;;5033408;28;20020;-63
2022/06/03 05:26:09;;;;;;;;;;;;;;;;;;5033403;28;19968;-63
2022/06/03 05:28:35;;;;;;;;;;;;;;;;;;5032171;28;19929;-63
2022/06/03 05:31:01;;;;;;;;;;;;;;;;;;5033041;28;19925;-63
2022/06/03 05:33:27;;;;;;;;;;;;;;;;;;5033265;28;19935;-63
2022/06/03 05:35:53;;;;;;;;;;;;;;;;;;5032629;28;19925;-63
2022/06/03 05:38:19;;;;;;;;;;;;;;;;;;5031539;28;20066;-63
2022/06/03 05:40:45;;;;;;;;;;;;;;;;;;5032709;28;20012;-63
2022/06/03 05:43:11;;;;;;;;;;;;;;;;;;5032189;28;19925;-63
2022/06/03 05:45:37;;;;;;;;;;;;;;;;;;5032847;28;20314;-63
2022/06/03 05:48:03;;;;;;;;;;;;;;;;;;5032991;28;19920;-63
2022/06/03 05:50:29;;;;;;;;;;;;;;;;;;5032260;28;19925;-63
2022/06/03 05:52:55;;;;;;;;;;;;;;;;;;5032953;28;19925;-63
2022/06/03 05:55:21;;;;;;;;;;;;;;;;;;5032970;28;20029;-63
2022/06/03 05:57:47;;;;;;;;;;;;;;;;;;5032339;28;19932;-63
2022/06/03 06:00:13;;;;;;;;;;;;;;;;;;5032132;28;19968;-63
2022/06/03 06:02:39;;;;;;;;;;;;;;;;;;5032732;28;19921;-63
2022/06/03 06:05:05;;;;;;;;;;;;;;;;;;5032317;28;19925;-63
2022/06/03 06:07:31;;;;;;;;;;;;;;;;;;5032000;28;20754;-63
2022/06/03 06:09:57;;;;;;;;;;;;;;;;;;5032712;28;19999;-63
2022/06/03 06:12:23;;;;;;;;;;;;;;;;;;5032493;28;19921;-63
2022/06/03 06:14:49;;;;;;;;;;;;;;;;;;5031882;28;19921;-63
2022/06/03 06:17:15;;;;;;;;;;;;;;;;;;5032243;28;19986;-63
2022/06/03 06:19:41;;;;;;;;;;;;;;;;;;5032583;28;19921;-63
2022/06/03 06:22:09;;;;;;;;;;;;;;;;;;5031141;28;19929;-63
2022/06/03 06:24:35;;;;;;;;;;;;;;;;;;5031924;28;19925;-63
2022/06/03 06:27:01;;;;;;;;;;;;;;;;;;5049227;28;19925;-61
2022/06/03 06:29:27;;;;;;;;;;;;;;;;;;5030963;28;20004;-61
2022/06/03 06:31:53;;;;;;;;;;;;;;;;;;5031723;28;19932;-61
2022/06/03 06:34:18;;;;;;;;;;;;;;;;;;5031645;28;19921;-61
2022/06/03 06:36:44;;;;;;;;;;;;;;;;;;5031190;28;19921;-61
2022/06/03 06:39:10;;;;;;;;;;;;;;;;;;5031665;28;19983;-63
2022/06/03 06:41:36;;;;;;;;;;;;;;;;;;5031715;28;19935;-63
2022/06/03 06:44:02;;;;;;;;;;;;;;;;;;5031093;28;19925;-63
2022/06/03 06:46:28;;;;;;;;;;;;;;;;;;5031387;28;19921;-63
2022/06/03 06:48:54;;;;;;;;;;;;;;;;;;5025935;28;19924;-62
2022/06/03 06:51:20;;;;;;;;;;;;;;;;;;5029061;28;19927;-63
2022/06/03 06:53:46;;;;;;;;;;;;;;;;;;5030995;28;19921;-63
2022/06/03 06:56:12;;;;;;;;;;;;;;;;;;5031017;28;20385;-63
2022/06/03 06:58:44;;;;;;;;;;;;;;;;;;5030499;28;19972;-64
2022/06/03 07:01:11;;;;;;;;;;;;;;;;;;5031402;28;20354;-63
2022/06/03 07:03:36;;;;;;;;;;;;;;;;;;5031015;28;19925;-63
2022/06/03 07:06:02;;;;;;;;;;;;;;;;;;5030800;28;20007;-63
2022/06/03 07:08:28;;;;;;;;;;;;;;;;;;5031104;28;19956;-62
2022/06/03 07:10:54;;;;;;;;;;;;;;;;;;5030811;28;19925;-62
2022/06/03 07:13:20;;;;;;;;;;;;;;;;;;5029730;28;19925;-63
2022/06/03 07:15:46;;;;;;;;;;;;;;;;;;5030812;28;19940;-63
2022/06/03 07:20:57;;;;;;;;;;;;;;;;;;5030699;28;20268;-63
2022/06/03 07:23:23;;;;;;;;;;;;;;;;;;5030951;28;19928;-63
2022/06/03 07:25:49;;;;;;;;;;;;;;;;;;5030994;28;19921;-62
2022/06/03 07:28:15;;;;;;;;;;;;;;;;;;5030304;28;20616;-61
2022/06/03 07:30:41;;;;;;;;;;;;;;;;;;5030588;28;19929;-62
2022/06/03 07:33:07;;;;;;;;;;;;;;;;;;5031379;28;19929;-63
2022/06/03 07:35:34;;;;;;;;;;;;;;;;;;5034302;28;19921;-63
2022/06/03 07:38:00;;;;;;;;;;;;;;;;;;5034673;28;19967;-62
2022/06/03 07:40:26;;;;;;;;;;;;;;;;;;5061652;28;19928;-62
2022/06/03 07:42:53;;;;;;;;;;;;;;;;;;5087325;28;20359;-62
2022/06/03 07:45:19;;;;;;;;;;;;;;;;;;5078622;28;20453;-62
2022/06/03 07:47:45;;;;;;;;;;;;;;;;;;5094503;28;19924;-63
2022/06/03 07:50:11;;;;;;;;;;;;;;;;;;5093993;28;19942;-64
2022/06/03 07:52:37;;;;;;;;;;;;;;;;;;5095009;28;19935;-63
2022/06/03 07:55:03;;;;;;;;;;;;;;;;;;5093653;28;19970;-64
2022/06/03 07:57:28;;;;;;;;;;;;;;;;;;5094098;28;19928;-64
2022/06/03 07:59:54;;;;;;;;;;;;;;;;;;5094394;28;19943;-63
2022/06/03 08:02:21;;;;;;;;;;;;;;;;;;5081896;28;19955;-64
2022/06/03 08:04:47;;;;;;;;;;;;;;;;;;5089227;28;19920;-63
2022/06/03 08:12:42;;;;;;;;;;;;;;;;;;5073449;28;20228;-63
2022/06/03 08:15:08;;;;;;;;;;;;;;;;;;5092013;28;19933;-63
2022/06/03 08:17:35;;;;;;;;;;;;;;;;;;5093357;28;19928;-62
2022/06/03 08:20:01;;;;;;;;;;;;;;;;;;5078061;28;19987;-62
2022/06/03 08:22:27;;;;;;;;;;;;;;;;;;5074527;28;20518;-63
2022/06/03 08:24:52;;;;;;;;;;;;;;;;;;5082352;28;19924;-62
2022/06/03 08:27:23;;;;;;;;;;;;;;;;;;5090901;28;19924;-63
2022/06/03 08:29:48;;;;;;;;;;;;;;;;;;5091490;28;20421;-63
2022/06/03 08:32:14;;;;;;;;;;;;;;;;;;5091967;28;19930;-63
2022/06/03 08:34:42;;;;;;;;;;;;;;;;;;5090592;28;19973;-65
2022/06/03 08:37:09;;;;;;;;;;;;;;;;;;5087937;28;19936;-65
2022/06/03 08:39:34;;;;;;;;;;;;;;;;;;5093678;28;19920;-60
2022/06/03 08:42:00;;;;;;;;;;;;;;;;;;5093551;28;19931;-60
2022/06/03 08:44:26;;;;;;;;;;;;;;;;;;5093136;28;19931;-59
2022/06/03 08:46:53;;;;;;;;;;;;;;;;;;5093704;28;20277;-62
2022/06/03 08:49:19;;;;;;;;;;;;;;;;;;5092275;28;20505;-61
2022/06/03 08:51:45;;;;;;;;;;;;;;;;;;5082483;28;19974;-61
2022/06/03 08:54:12;;;;;;;;;;;;;;;;;;4152669;28;10000783;-60
2022/06/03 08:56:38;;;;;;;;;;;;;;;;;;5012103;28;19921;-60
2022/06/03 08:59:04;;;;;;;;;;;;;;;;;;5013017;28;19943;-61
2022/06/03 09:01:30;;;;;;;;;;;;;;;;;;5017609;28;19971;-60
2022/06/03 09:03:56;;;;;;;;;;;;;;;;;;5024726;28;19921;-62
2022/06/03 09:06:22;;;;;;;;;;;;;;;;;;5024350;28;19925;-62
2022/06/03 09:08:48;;;;;;;;;;;;;;;;;;5012469;28;19929;-60
2022/06/03 09:11:14;;;;;;;;;;;;;;;;;;5028584;28;19928;-62
2022/06/03 09:13:40;;;;;;;;;;;;;;;;;;5022857;28;20384;-61
2022/06/03 09:16:07;;;;;;;;;;;;;;;;;;5030317;28;20354;-62
2022/06/03 09:18:33;;;;;;;;;;;;;;;;;;5020948;28;20434;-62
2022/06/03 09:20:59;;;;;;;;;;;;;;;;;;5027310;28;20491;-61
2022/06/03 09:23:26;;;;;;;;;;;;;;;;;;5032532;28;19933;-61
2022/06/03 09:25:51;;;;;;;;;;;;;;;;;;5025407;28;20304;-61
2022/06/03 09:28:17;;;;;;;;;;;;;;;;;;5020069;28;19943;-61
2022/06/03 09:30:43;;;;;;;;;;;;;;;;;;5027773;28;19921;-61
2022/06/03 09:33:11;;;;;;;;;;;;;;;;;;5032193;28;19921;-62
2022/06/03 09:35:37;;;;;;;;;;;;;;;;;;5015493;28;19986;-63
2022/06/03 09:38:03;;;;;;;;;;;;;;;;;;5025298;28;19933;-63
2022/06/03 09:40:29;;;;;;;;;;;;;;;;;;5011226;28;20046;-62
2022/06/03 09:42:55;;;;;;;;;;;;;;;;;;5030257;28;20004;-64
2022/06/03 09:45:22;;;;;;;;;;;;;;;;;;5020022;28;20004;-63
2022/06/03 09:47:49;;;;;;;;;;;;;;;;;;5023037;28;19964;-66
2022/06/03 09:50:15;;;;;;;;;;;;;;;;;;5032150;28;19940;-63
2022/06/03 09:52:41;;;;;;;;;;;;;;;;;;5023903;28;19925;-62
2022/06/03 09:55:07;;;;;;;;;;;;;;;;;;5028788;28;19959;-62
2022/06/03 09:57:33;;;;;;;;;;;;;;;;;;5031379;28;19925;-62
2022/06/03 09:59:59;;;;;;;;;;;;;;;;;;5032102;28;19928;-62
2022/06/03 10:02:25;;;;;;;;;;;;;;;;;;5027491;28;19929;-62
2022/06/03 10:04:51;;;;;;;;;;;;;;;;;;5032561;28;19921;-62
2022/06/03 10:07:18;;;;;;;;;;;;;;;;;;5023816;28;19921;-62
2022/06/03 10:12:49;;;;;;;;;;;;;;;;;;5016040;28;20332;-63
2022/06/03 10:17:59;;;;;;;;;;;;;;;;;;5022485;28;20338;-62
2022/06/03 10:20:25;;;;;;;;;;;;;;;;;;5028523;28;19954;-61
2022/06/03 10:22:52;;;;;;;;;;;;;;;;;;5020780;28;19929;-64
2022/06/03 10:25:19;;;;;;;;;;;;;;;;;;5021146;28;19921;-63
2022/06/03 10:27:47;;;;;;;;;;;;;;;;;;5025070;28;19956;-63
2022/06/03 10:30:13;;;;;;;;;;;;;;;;;;5031849;28;19971;-63
2022/06/03 10:32:39;;;;;;;;;;;;;;;;;;5025186;28;19940;-63
2022/06/03 10:35:05;;;;;;;;;;;;;;;;;;5024202;28;19925;-63
2022/06/03 10:37:34;;;;;;;;;;;;;;;;;;5026095;28;19936;-63
2022/06/03 10:40:00;;;;;;;;;;;;;;;;;;5019588;28;19932;-62
2022/06/03 10:42:26;;;;;;;;;;;;;;;;;;5026541;28;19925;-63
2022/06/03 10:44:53;;;;;;;;;;;;;;;;;;5030097;28;19925;-62
2022/06/03 10:47:19;;;;;;;;;;;;;;;;;;5016730;28;19921;-63
2022/06/03 10:49:45;;;;;;;;;;;;;;;;;;5032585;28;19925;-61
2022/06/03 11:03:10;;;;;;;;;;;;;;;;;;5011753;28;20249;-61
2022/06/03 11:05:36;;;;;;;;;;;;;;;;;;5026194;28;19980;-62
2022/06/03 11:08:03;;;;;;;;;;;;;;;;;;5032301;28;19929;-62
2022/06/03 11:10:29;;;;;;;;;;;;;;;;;;5034889;28;19986;-62
2022/06/03 11:12:54;;;;;;;;;;;;;;;;;;5034919;28;19921;-62
2022/06/03 11:15:20;;;;;;;;;;;;;;;;;;5035032;28;19921;-64
2022/06/03 11:17:46;;;;;;;;;;;;;;;;;;5035180;28;20063;-64
2022/06/03 11:20:12;;;;;;;;;;;;;;;;;;5035813;28;19921;-64
2022/06/03 11:22:44;;;;;;;;;;;;;;;;;;5020935;28;19928;-65
2022/06/03 11:25:10;;;;;;;;;;;;;;;;;;5033126;28;20379;-64
2022/06/03 11:27:36;;;;;;;;;;;;;;;;;;5021733;28;20016;-62
2022/06/03 11:30:03;;;;;;;;;;;;;;;;;;5027840;28;19925;-67
2022/06/03 11:32:29;;;;;;;;;;;;;;;;;;5021914;28;19928;-65
2022/06/03 11:34:54;;;;;;;;;;;;;;;;;;5031980;28;19921;-64
2022/06/03 11:37:20;;;;;;;;;;;;;;;;;;5029780;28;19989;-65
2022/06/03 11:39:46;;;;;;;;;;;;;;;;;;5016344;28;19929;-63
2022/06/03 11:42:12;;;;;;;;;;;;;;;;;;5033076;28;19921;-64
2022/06/03 11:44:38;;;;;;;;;;;;;;;;;;5024836;28;20016;-64
2022/06/03 11:47:04;;;;;;;;;;;;;;;;;;5026652;28;19989;-63
2022/06/03 11:49:30;;;;;;;;;;;;;;;;;;5017898;28;19999;-63
2022/06/03 11:51:56;;;;;;;;;;;;;;;;;;5032229;28;19921;-67
2022/06/03 11:54:23;;;;;;;;;;;;;;;;;;5030446;28;19996;-67
2022/06/03 11:56:49;;;;;;;;;;;;;;;;;;5025163;28;19961;-67
2022/06/03 11:59:15;;;;;;;;;;;;;;;;;;5022374;28;19979;-66
2022/06/03 12:01:41;;;;;;;;;;;;;;;;;;5028600;28;19944;-66
2022/06/03 12:04:07;;;;;;;;;;;;;;;;;;5031468;28;19925;-67
2022/06/03 12:06:34;;;;;;;;;;;;;;;;;;5029305;28;19921;-68
2022/06/03 12:09:01;;;;;;;;;;;;;;;;;;5019385;28;19920;-70
2022/06/03 12:14:19;;;;;;;;;;;;;;;;;;5022579;28;20349;-68
2022/06/03 12:16:45;;;;;;;;;;;;;;;;;;5022693;28;19922;-65
2022/06/03 12:19:11;;;;;;;;;;;;;;;;;;5026179;28;20403;-68
2022/06/03 12:21:38;;;;;;;;;;;;;;;;;;5016992;28;19968;-68
2022/06/03 12:24:04;;;;;;;;;;;;;;;;;;5025267;28;19932;-67
2022/06/03 12:26:31;;;;;;;;;;;;;;;;;;5016410;28;19925;-67
2022/06/03 12:28:57;;;;;;;;;;;;;;;;;;5022425;28;19925;-68
2022/06/03 12:31:23;;;;;;;;;;;;;;;;;;5024114;28;19968;-68
2022/06/03 12:33:49;;;;;;;;;;;;;;;;;;5032228;28;20007;-66
2022/06/03 12:36:15;;;;;;;;;;;;;;;;;;5029676;28;20020;-67
2022/06/03 12:38:43;;;;;;;;;;;;;;;;;;5011626;28;19929;-67
2022/06/03 12:41:09;;;;;;;;;;;;;;;;;;5013101;28;19968;-66
2022/06/03 12:43:35;;;;;;;;;;;;;;;;;;5019359;28;19973;-66
2022/06/03 12:46:01;;;;;;;;;;;;;;;;;;5018142;28;19925;-68
2022/06/03 12:48:26;;;;;;;;;;;;;;;;;;5030125;28;19931;-65
2022/06/03 12:50:52;;;;;;;;;;;;;;;;;;5027786;28;19921;-64
2022/06/03 12:53:18;;;;;;;;;;;;;;;;;;5019646;28;19940;-66
2022/06/03 12:55:45;;;;;;;;;;;;;;;;;;5027398;28;19924;-63
2022/06/03 12:58:11;;;;;;;;;;;;;;;;;;5027049;28;19933;-63
2022/06/03 13:00:36;;;;;;;;;;;;;;;;;;5027025;28;19929;-63
2022/06/03 13:03:02;;;;;;;;;;;;;;;;;;5029303;28;19967;-63
2022/06/03 13:05:28;;;;;;;;;;;;;;;;;;5020127;28;19925;-63
2022/06/03 13:07:54;;;;;;;;;;;;;;;;;;5023760;28;19922;-63
2022/06/03 13:10:20;;;;;;;;;;;;;;;;;;5029826;28;19921;-66
2022/06/03 13:12:46;;;;;;;;;;;;;;;;;;5020327;28;20000;-64
2022/06/03 13:15:12;;;;;;;;;;;;;;;;;;5030886;28;19925;-64
2022/06/03 13:17:38;;;;;;;;;;;;;;;;;;5027027;28;19933;-64
2022/06/03 13:20:04;;;;;;;;;;;;;;;;;;5013676;28;19979;-63
2022/06/03 13:22:31;;;;;;;;;;;;;;;;;;5027447;28;19921;-65
2022/06/03 13:24:57;;;;;;;;;;;;;;;;;;5025651;28;20300;-64
2022/06/03 13:27:24;;;;;;;;;;;;;;;;;;5023411;28;19922;-64
2022/06/03 13:29:50;;;;;;;;;;;;;;;;;;5026033;28;19921;-64
2022/06/03 13:32:16;;;;;;;;;;;;;;;;;;5015063;28;19925;-64
2022/06/03 13:34:42;;;;;;;;;;;;;;;;;;5015200;28;19933;-64
2022/06/03 13:37:08;;;;;;;;;;;;;;;;;;5018750;28;19937;-65
2022/06/03 13:39:33;;;;;;;;;;;;;;;;;;5021827;28;20012;-65
2022/06/03 13:44:47;;;;;;;;;;;;;;;;;;5022137;28;20391;-64
2022/06/03 13:47:13;;;;;;;;;;;;;;;;;;5029810;28;20275;-63
2022/06/03 13:49:39;;;;;;;;;;;;;;;;;;5030197;28;19925;-64
2022/06/03 13:52:05;;;;;;;;;;;;;;;;;;5026964;28;19979;-64
2022/06/03 13:54:33;;;;;;;;;;;;;;;;;;5033094;28;19925;-64
2022/06/03 13:56:59;;;;;;;;;;;;;;;;;;5030859;28;19932;-65
2022/06/03 13:59:25;;;;;;;;;;;;;;;;;;5026391;28;19922;-65
2022/06/03 14:01:51;;;;;;;;;;;;;;;;;;5028740;28;19940;-65
2022/06/03 14:04:17;;;;;;;;;;;;;;;;;;5024736;28;19929;-64
2022/06/03 14:06:46;;;;;;;;;;;;;;;;;;5027199;28;19921;-65
2022/06/03 14:09:13;;;;;;;;;;;;;;;;;;5028704;28;19921;-65
2022/06/03 14:11:39;;;;;;;;;;;;;;;;;;5028009;28;19975;-64
2022/06/03 14:14:05;;;;;;;;;;;;;;;;;;5036936;28;19929;-65
2022/06/03 14:16:32;;;;;;;;;;;;;;;;;;5037096;28;19925;-64
2022/06/03 14:18:58;;;;;;;;;;;;;;;;;;5013725;28;19979;-66
2022/06/03 14:21:24;;;;;;;;;;;;;;;;;;5025496;28;19925;-65
2022/06/03 14:23:51;;;;;;;;;;;;;;;;;;5032764;28;19943;-65
2022/06/03 14:26:17;;;;;;;;;;;;;;;;;;5026431;28;19921;-65
2022/06/03 14:28:43;;;;;;;;;;;;;;;;;;5024365;28;19925;-64
2022/06/03 14:31:11;;;;;;;;;;;;;;;;;;5031988;28;19967;-64
2022/06/03 14:33:37;;;;;;;;;;;;;;;;;;5032090;28;19956;-66
2022/06/03 14:36:03;;;;;;;;;;;;;;;;;;5028216;28;20308;-65
2022/06/03 14:38:29;;;;;;;;;;;;;;;;;;5029331;28;19929;-64
2022/06/03 14:40:55;;;;;;;;;;;;;;;;;;5030505;28;19925;-64
2022/06/03 14:43:21;;;;;;;;;;;;;;;;;;5031487;28;20003;-63
2022/06/03 14:45:47;;;;;;;;;;;;;;;;;;5031510;28;19937;-63
2022/06/03 14:48:13;;;;;;;;;;;;;;;;;;5032206;28;20356;-63
2022/06/03 14:50:39;;;;;;;;;;;;;;;;;;5031938;28;20011;-63
2022/06/03 14:53:05;;;;;;;;;;;;;;;;;;5032530;28;19928;-63
2022/06/03 14:55:31;;;;;;;;;;;;;;;;;;5032725;28;19925;-63
2022/06/03 14:57:58;;;;;;;;;;;;;;;;;;5032578;28;19925;-63
2022/06/03 15:00:24;;;;;;;;;;;;;;;;;;5032335;28;20298;-63
2022/06/03 15:02:50;;;;;;;;;;;;;;;;;;5032446;28;19925;-63
2022/06/03 15:05:16;;;;;;;;;;;;;;;;;;5032250;28;19932;-63
2022/06/03 15:07:42;;;;;;;;;;;;;;;;;;5031896;28;19928;-63
2022/06/03 15:10:08;;;;;;;;;;;;;;;;;;5032296;28;19975;-63
2022/06/03 15:12:34;;;;;;;;;;;;;;;;;;5032486;28;19952;-63
2022/06/03 15:15:00;;;;;;;;;;;;;;;;;;5031836;28;19928;-63
2022/06/03 15:17:26;;;;;;;;;;;;;;;;;;5032523;28;19929;-63
2022/06/03 15:19:52;;;;;;;;;;;;;;;;;;5032429;28;19925;-63
2022/06/03 15:22:18;;;;;;;;;;;;;;;;;;5032008;28;19921;-63
2022/06/03 15:24:44;;;;;;;;;;;;;;;;;;5031913;28;19925;-63
2022/06/03 15:27:10;;;;;;;;;;;;;;;;;;5015540;28;20339;-63
2022/06/03 15:29:36;;;;;;;;;;;;;;;;;;5011737;28;20017;-63
2022/06/03 15:32:02;;;;;;;;;;;;;;;;;;5012482;28;19975;-63
2022/06/03 15:34:28;;;;;;;;;;;;;;;;;;5010862;28;19952;-63
2022/06/03 15:36:54;;;;;;;;;;;;;;;;;;5011770;28;20012;-63
2022/06/03 15:39:20;;;;;;;;;;;;;;;;;;5012843;28;19922;-63
2022/06/03 15:41:47;;;;;;;;;;;;;;;;;;5012242;28;20016;-63
2022/06/03 15:44:14;;;;;;;;;;;;;;;;;;5011578;28;20273;-63
2022/06/03 15:46:40;;;;;;;;;;;;;;;;;;5012386;28;19922;-63
2022/06/03 15:49:06;;;;;;;;;;;;;;;;;;5011834;28;19948;-63
2022/06/03 15:51:33;;;;;;;;;;;;;;;;;;5011532;28;20552;-63
2022/06/03 15:54:00;;;;;;;;;;;;;;;;;;5012312;28;20045;-63
2022/06/03 15:56:26;;;;;;;;;;;;;;;;;;5015444;28;20063;-63
2022/06/03 15:58:52;;;;;;;;;;;;;;;;;;5015414;28;20012;-63
2022/06/03 16:01:18;;;;;;;;;;;;;;;;;;5015984;28;19922;-63
2022/06/03 16:03:45;;;;;;;;;;;;;;;;;;5015849;28;19926;-63
2022/06/03 16:06:11;;;;;;;;;;;;;;;;;;5015274;28;19955;-63
2022/06/03 16:08:37;;;;;;;;;;;;;;;;;;5015667;28;19932;-63
2022/06/03 16:11:03;;;;;;;;;;;;;;;;;;5015507;28;19964;-63
2022/06/03 16:13:29;;;;;;;;;;;;;;;;;;5015149;28;20325;-63
2022/06/03 16:15:56;;;;;;;;;;;;;;;;;;5015814;28;19944;-63
2022/06/03 16:18:22;;;;;;;;;;;;;;;;;;5015929;28;19930;-63
2022/06/03 16:20:48;;;;;;;;;;;;;;;;;;5015295;28;19929;-63
2022/06/03 16:23:14;;;;;;;;;;;;;;;;;;5015749;28;19921;-63
2022/06/03 16:25:40;;;;;;;;;;;;;;;;;;5019997;28;19921;-63
2022/06/03 16:28:07;;;;;;;;;;;;;;;;;;5034934;28;19929;-62
2022/06/03 16:30:34;;;;;;;;;;;;;;;;;;5035295;28;19921;-62
2022/06/03 16:33:00;;;;;;;;;;;;;;;;;;5035309;28;19921;-62
2022/06/03 16:35:26;;;;;;;;;;;;;;;;;;5033168;28;20368;-62
2022/06/03 16:37:52;;;;;;;;;;;;;;;;;;5035260;28;19925;-62
2022/06/03 16:40:18;;;;;;;;;;;;;;;;;;5034878;28;19925;-62
2022/06/03 16:42:44;;;;;;;;;;;;;;;;;;5034541;28;19988;-62
2022/06/03 16:47:55;;;;;;;;;;;;;;;;;;5035191;28;20268;-62
2022/06/03 16:50:22;;;;;;;;;;;;;;;;;;5034113;28;19928;-62
2022/06/03 16:52:48;;;;;;;;;;;;;;;;;;5035131;28;19936;-62
2022/06/03 16:55:14;;;;;;;;;;;;;;;;;;5035013;28;19920;-62
2022/06/03 16:57:42;;;;;;;;;;;;;;;;;;5034513;28;19956;-62
2022/06/03 17:00:08;;;;;;;;;;;;;;;;;;5034538;28;19921;-62
2022/06/03 17:02:34;;;;;;;;;;;;;;;;;;5034791;28;19921;-62
2022/06/03 17:05:00;;;;;;;;;;;;;;;;;;5033928;28;19928;-62
2022/06/03 17:07:26;;;;;;;;;;;;;;;;;;5034214;28;19925;-62
2022/06/03 17:09:52;;;;;;;;;;;;;;;;;;5034415;28;19928;-62
2022/06/03 17:12:18;;;;;;;;;;;;;;;;;;5034297;28;19921;-62